sensor_id;sensor_type;location;lat;lon;timestamp;pressure;altitude;pressure_sealevel;temperature;humidity
83483;BME280;73420;32.678;-85.380;2024-01-30T00:01:24;99069.54;;;19.15;18.33
83483;BME280;73420;32.678;-85.380;2024-01-30T00:03:49;99074.91;;;19.14;18.54
83483;BME280;73420;32.678;-85.380;2024-01-30T00:06:22;99076.40;;;18.78;18.72
83483;BME280;73420;32.678;-85.380;2024-01-30T00:08:40;99081.19;;;19.16;18.76
83483;BME280;73420;32.678;-85.380;2024-01-30T00:11:07;99084.68;;;19.15;18.78
83483;BME280;73420;32.678;-85.380;2024-01-30T00:13:31;99087.00;;;18.39;18.95
83483;BME280;73420;32.678;-85.380;2024-01-30T00:15:57;99089.95;;;18.90;18.98
83483;BME280;73420;32.678;-85.380;2024-01-30T00:18:22;99092.19;;;19.24;18.81
83483;BME280;73420;32.678;-85.380;2024-01-30T00:20:48;99094.14;;;18.86;18.95
83483;BME280;73420;32.678;-85.380;2024-01-30T00:23:13;99095.57;;;18.72;19.25
83483;BME280;73420;32.678;-85.380;2024-01-30T00:25:39;99091.43;;;18.47;19.29
83483;BME280;73420;32.678;-85.380;2024-01-30T00:28:05;99091.98;;;18.73;19.31
83483;BME280;73420;32.678;-85.380;2024-01-30T00:30:30;99094.71;;;18.49;19.29
83483;BME280;73420;32.678;-85.380;2024-01-30T00:32:55;99092.10;;;18.30;19.49
83483;BME280;73420;32.678;-85.380;2024-01-30T00:35:21;99091.79;;;18.33;19.65
83483;BME280;73420;32.678;-85.380;2024-01-30T00:37:46;99092.21;;;18.72;19.65
83483;BME280;73420;32.678;-85.380;2024-01-30T00:40:12;99091.24;;;18.61;19.80
83483;BME280;73420;32.678;-85.380;2024-01-30T00:42:38;99091.28;;;18.32;20.00
83483;BME280;73420;32.678;-85.380;2024-01-30T00:45:04;99093.48;;;18.52;19.74
83483;BME280;73420;32.678;-85.380;2024-01-30T00:47:29;99093.61;;;18.28;19.83
83483;BME280;73420;32.678;-85.380;2024-01-30T00:49:54;99090.00;;;18.29;19.90
83483;BME280;73420;32.678;-85.380;2024-01-30T00:52:20;99084.57;;;18.16;20.06
83483;BME280;73420;32.678;-85.380;2024-01-30T00:54:46;99083.25;;;18.05;20.15
83483;BME280;73420;32.678;-85.380;2024-01-30T00:57:11;99081.83;;;18.00;20.28
83483;BME280;73420;32.678;-85.380;2024-01-30T00:59:36;99083.96;;;17.87;20.53
83483;BME280;73420;32.678;-85.380;2024-01-30T01:02:02;99086.84;;;17.62;20.46
83483;BME280;73420;32.678;-85.380;2024-01-30T01:04:27;99085.93;;;17.71;20.71
83483;BME280;73420;32.678;-85.380;2024-01-30T01:06:53;99087.17;;;17.37;20.74
83483;BME280;73420;32.678;-85.380;2024-01-30T01:09:18;99086.56;;;17.43;20.58
83483;BME280;73420;32.678;-85.380;2024-01-30T01:11:44;99086.39;;;17.37;20.78
83483;BME280;73420;32.678;-85.380;2024-01-30T01:14:09;99080.09;;;17.45;20.56
83483;BME280;73420;32.678;-85.380;2024-01-30T01:16:36;99081.85;;;17.63;20.55
83483;BME280;73420;32.678;-85.380;2024-01-30T01:19:02;99079.95;;;17.54;20.83
83483;BME280;73420;32.678;-85.380;2024-01-30T01:21:26;99077.55;;;17.21;20.83
83483;BME280;73420;32.678;-85.380;2024-01-30T01:23:52;99072.68;;;17.12;21.10
83483;BME280;73420;32.678;-85.380;2024-01-30T01:26:17;99072.82;;;17.45;21.09
83483;BME280;73420;32.678;-85.380;2024-01-30T01:28:43;99074.72;;;17.14;21.15
83483;BME280;73420;32.678;-85.380;2024-01-30T01:31:09;99076.76;;;17.10;21.44
83483;BME280;73420;32.678;-85.380;2024-01-30T01:33:34;99078.57;;;17.02;21.49
83483;BME280;73420;32.678;-85.380;2024-01-30T01:35:59;99075.43;;;16.96;21.47
83483;BME280;73420;32.678;-85.380;2024-01-30T01:38:25;99074.73;;;17.06;21.39
83483;BME280;73420;32.678;-85.380;2024-01-30T01:40:50;99065.48;;;17.05;21.47
83483;BME280;73420;32.678;-85.380;2024-01-30T01:43:18;99061.14;;;16.98;21.40
83483;BME280;73420;32.678;-85.380;2024-01-30T01:45:42;99065.89;;;16.89;21.35
83483;BME280;73420;32.678;-85.380;2024-01-30T01:48:07;99072.73;;;16.78;21.50
83483;BME280;73420;32.678;-85.380;2024-01-30T01:50:33;99076.62;;;16.72;21.54
83483;BME280;73420;32.678;-85.380;2024-01-30T01:52:58;99073.94;;;16.90;21.46
83483;BME280;73420;32.678;-85.380;2024-01-30T01:55:25;99071.69;;;16.69;21.45
83483;BME280;73420;32.678;-85.380;2024-01-30T01:57:50;99074.54;;;16.60;21.48
83483;BME280;73420;32.678;-85.380;2024-01-30T02:00:17;99077.95;;;16.58;21.50
83483;BME280;73420;32.678;-85.380;2024-01-30T02:02:41;99079.68;;;16.49;21.56
83483;BME280;73420;32.678;-85.380;2024-01-30T02:05:07;99079.94;;;16.38;21.57
83483;BME280;73420;32.678;-85.380;2024-01-30T02:07:34;99081.87;;;16.49;21.56
83483;BME280;73420;32.678;-85.380;2024-01-30T02:09:57;99083.24;;;16.35;21.74
83483;BME280;73420;32.678;-85.380;2024-01-30T02:12:23;99084.08;;;16.30;21.71
83483;BME280;73420;32.678;-85.380;2024-01-30T02:14:50;99084.81;;;16.46;21.59
83483;BME280;73420;32.678;-85.380;2024-01-30T02:17:15;99082.39;;;16.51;21.72
83483;BME280;73420;32.678;-85.380;2024-01-30T02:19:40;99080.31;;;16.61;21.82
83483;BME280;73420;32.678;-85.380;2024-01-30T02:22:06;99083.74;;;16.65;21.72
83483;BME280;73420;32.678;-85.380;2024-01-30T02:24:31;99087.29;;;16.45;22.23
83483;BME280;73420;32.678;-85.380;2024-01-30T02:26:57;99089.03;;;16.30;22.32
83483;BME280;73420;32.678;-85.380;2024-01-30T02:29:22;99090.03;;;16.60;22.64
83483;BME280;73420;32.678;-85.380;2024-01-30T02:31:48;99087.12;;;16.29;22.14
83483;BME280;73420;32.678;-85.380;2024-01-30T02:34:14;99087.83;;;16.45;22.61
83483;BME280;73420;32.678;-85.380;2024-01-30T02:36:41;99090.29;;;16.26;22.73
83483;BME280;73420;32.678;-85.380;2024-01-30T02:39:04;99096.50;;;16.10;22.69
83483;BME280;73420;32.678;-85.380;2024-01-30T02:41:30;99103.69;;;16.15;22.36
83483;BME280;73420;32.678;-85.380;2024-01-30T02:43:56;99102.30;;;16.09;22.34
83483;BME280;73420;32.678;-85.380;2024-01-30T02:46:22;99100.77;;;15.95;22.71
83483;BME280;73420;32.678;-85.380;2024-01-30T02:48:47;99099.07;;;15.81;22.64
83483;BME280;73420;32.678;-85.380;2024-01-30T02:51:12;99094.12;;;15.56;22.94
83483;BME280;73420;32.678;-85.380;2024-01-30T02:53:38;99096.13;;;15.42;23.63
83483;BME280;73420;32.678;-85.380;2024-01-30T02:56:05;99097.58;;;15.55;23.19
83483;BME280;73420;32.678;-85.380;2024-01-30T02:58:29;99098.94;;;15.73;22.75
83483;BME280;73420;32.678;-85.380;2024-01-30T03:00:55;99100.66;;;15.76;22.55
83483;BME280;73420;32.678;-85.380;2024-01-30T03:03:20;99101.25;;;15.94;22.56
83483;BME280;73420;32.678;-85.380;2024-01-30T03:05:46;99103.46;;;15.45;22.40
83483;BME280;73420;32.678;-85.380;2024-01-30T03:08:12;99107.70;;;15.57;22.67
83483;BME280;73420;32.678;-85.380;2024-01-30T03:10:38;99107.58;;;15.65;23.11
83483;BME280;73420;32.678;-85.380;2024-01-30T03:13:03;99105.92;;;15.45;22.86
83483;BME280;73420;32.678;-85.380;2024-01-30T03:15:28;99108.32;;;15.44;22.89
83483;BME280;73420;32.678;-85.380;2024-01-30T03:17:54;99111.07;;;15.40;23.58
83483;BME280;73420;32.678;-85.380;2024-01-30T03:20:25;99113.04;;;15.69;23.24
83483;BME280;73420;32.678;-85.380;2024-01-30T03:22:45;99111.53;;;15.31;23.38
83483;BME280;73420;32.678;-85.380;2024-01-30T03:25:11;99111.72;;;14.81;24.00
83483;BME280;73420;32.678;-85.380;2024-01-30T03:27:36;99111.15;;;15.21;23.95
83483;BME280;73420;32.678;-85.380;2024-01-30T03:30:02;99117.49;;;14.75;24.33
83483;BME280;73420;32.678;-85.380;2024-01-30T03:32:30;99116.50;;;14.94;23.33
83483;BME280;73420;32.678;-85.380;2024-01-30T03:34:54;99114.43;;;15.40;23.11
83483;BME280;73420;32.678;-85.380;2024-01-30T03:37:19;99117.93;;;14.90;23.00
83483;BME280;73420;32.678;-85.380;2024-01-30T03:39:45;99117.99;;;14.85;23.01
83483;BME280;73420;32.678;-85.380;2024-01-30T03:42:10;99121.79;;;15.24;23.00
83483;BME280;73420;32.678;-85.380;2024-01-30T03:44:38;99121.23;;;14.92;23.05
83483;BME280;73420;32.678;-85.380;2024-01-30T03:47:02;99121.44;;;15.06;22.96
83483;BME280;73420;32.678;-85.380;2024-01-30T03:49:27;99115.94;;;15.14;23.16
83483;BME280;73420;32.678;-85.380;2024-01-30T03:51:53;99118.35;;;15.08;23.15
83483;BME280;73420;32.678;-85.380;2024-01-30T03:54:18;99121.78;;;14.94;23.17
83483;BME280;73420;32.678;-85.380;2024-01-30T03:56:44;99125.90;;;14.76;23.34
83483;BME280;73420;32.678;-85.380;2024-01-30T03:59:09;99126.89;;;15.02;23.28
83483;BME280;73420;32.678;-85.380;2024-01-30T04:01:35;99130.51;;;15.10;23.25
83483;BME280;73420;32.678;-85.380;2024-01-30T04:04:01;99133.95;;;14.86;23.48
83483;BME280;73420;32.678;-85.380;2024-01-30T04:06:26;99130.59;;;14.66;24.01
83483;BME280;73420;32.678;-85.380;2024-01-30T04:08:52;99131.44;;;14.68;24.42
83483;BME280;73420;32.678;-85.380;2024-01-30T04:11:19;99137.77;;;14.61;23.92
83483;BME280;73420;32.678;-85.380;2024-01-30T04:13:43;99139.62;;;14.45;24.60
83483;BME280;73420;32.678;-85.380;2024-01-30T04:16:19;99146.35;;;14.38;24.72
83483;BME280;73420;32.678;-85.380;2024-01-30T04:18:34;99150.68;;;14.53;24.62
83483;BME280;73420;32.678;-85.380;2024-01-30T04:21:01;99152.01;;;14.08;24.67
83483;BME280;73420;32.678;-85.380;2024-01-30T04:23:26;99148.53;;;14.02;25.46
83483;BME280;73420;32.678;-85.380;2024-01-30T04:25:51;99148.44;;;13.85;24.33
83483;BME280;73420;32.678;-85.380;2024-01-30T04:28:17;99147.84;;;13.82;24.60
83483;BME280;73420;32.678;-85.380;2024-01-30T04:30:43;99149.62;;;14.12;24.60
83483;BME280;73420;32.678;-85.380;2024-01-30T04:33:12;99149.16;;;14.31;24.82
83483;BME280;73420;32.678;-85.380;2024-01-30T04:35:34;99146.92;;;13.91;24.84
83483;BME280;73420;32.678;-85.380;2024-01-30T04:38:00;99145.56;;;13.74;24.76
83483;BME280;73420;32.678;-85.380;2024-01-30T04:40:25;99144.73;;;13.57;25.06
83483;BME280;73420;32.678;-85.380;2024-01-30T04:42:51;99143.52;;;13.88;24.97
83483;BME280;73420;32.678;-85.380;2024-01-30T04:45:17;99142.17;;;13.78;24.82
83483;BME280;73420;32.678;-85.380;2024-01-30T04:47:42;99139.67;;;13.80;24.99
83483;BME280;73420;32.678;-85.380;2024-01-30T04:50:08;99133.82;;;13.69;26.40
83483;BME280;73420;32.678;-85.380;2024-01-30T04:52:33;99136.07;;;13.02;26.01
83483;BME280;73420;32.678;-85.380;2024-01-30T04:55:01;99136.36;;;13.10;25.59
83483;BME280;73420;32.678;-85.380;2024-01-30T04:57:25;99136.37;;;13.24;26.29
83483;BME280;73420;32.678;-85.380;2024-01-30T04:59:50;99134.04;;;13.29;25.48
83483;BME280;73420;32.678;-85.380;2024-01-30T05:02:16;99133.35;;;13.30;26.00
83483;BME280;73420;32.678;-85.380;2024-01-30T05:04:42;99133.46;;;13.15;25.65
83483;BME280;73420;32.678;-85.380;2024-01-30T05:07:07;99128.59;;;13.13;25.98
83483;BME280;73420;32.678;-85.380;2024-01-30T05:09:35;99126.75;;;13.10;25.70
83483;BME280;73420;32.678;-85.380;2024-01-30T05:11:59;99128.28;;;12.95;25.39
83483;BME280;73420;32.678;-85.380;2024-01-30T05:14:24;99124.73;;;13.05;25.43
83483;BME280;73420;32.678;-85.380;2024-01-30T05:16:50;99127.93;;;13.19;25.31
83483;BME280;73420;32.678;-85.380;2024-01-30T05:19:16;99126.18;;;13.33;25.20
83483;BME280;73420;32.678;-85.380;2024-01-30T05:21:42;99122.63;;;13.45;25.01
83483;BME280;73420;32.678;-85.380;2024-01-30T05:24:07;99120.93;;;13.57;24.96
83483;BME280;73420;32.678;-85.380;2024-01-30T05:26:33;99117.98;;;13.63;24.84
83483;BME280;73420;32.678;-85.380;2024-01-30T05:28:58;99120.01;;;13.60;24.82
83483;BME280;73420;32.678;-85.380;2024-01-30T05:31:24;99115.82;;;13.65;24.86
83483;BME280;73420;32.678;-85.380;2024-01-30T05:33:50;99108.77;;;13.63;24.87
83483;BME280;73420;32.678;-85.380;2024-01-30T05:36:15;99106.15;;;13.61;24.88
83483;BME280;73420;32.678;-85.380;2024-01-30T05:38:41;99105.54;;;13.45;24.94
83483;BME280;73420;32.678;-85.380;2024-01-30T05:41:07;99101.55;;;13.59;24.89
83483;BME280;73420;32.678;-85.380;2024-01-30T05:43:32;99103.18;;;13.32;25.12
83483;BME280;73420;32.678;-85.380;2024-01-30T05:45:58;99106.99;;;13.30;25.04
83483;BME280;73420;32.678;-85.380;2024-01-30T05:48:23;99110.76;;;13.28;24.99
83483;BME280;73420;32.678;-85.380;2024-01-30T05:50:49;99113.40;;;13.16;25.04
83483;BME280;73420;32.678;-85.380;2024-01-30T05:53:15;99118.34;;;12.91;25.26
83483;BME280;73420;32.678;-85.380;2024-01-30T05:55:40;99123.14;;;12.77;25.39
83483;BME280;73420;32.678;-85.380;2024-01-30T05:58:06;99127.89;;;12.86;25.38
83483;BME280;73420;32.678;-85.380;2024-01-30T06:00:32;99127.22;;;13.05;25.21
83483;BME280;73420;32.678;-85.380;2024-01-30T06:02:57;99129.35;;;13.08;25.20
83483;BME280;73420;32.678;-85.380;2024-01-30T06:05:23;99130.79;;;13.08;25.10
83483;BME280;73420;32.678;-85.380;2024-01-30T06:07:49;99130.83;;;12.84;25.87
83483;BME280;73420;32.678;-85.380;2024-01-30T06:10:18;99133.09;;;12.91;26.46
83483;BME280;73420;32.678;-85.380;2024-01-30T06:12:40;99133.59;;;12.80;25.86
83483;BME280;73420;32.678;-85.380;2024-01-30T06:15:06;99132.66;;;12.43;26.28
83483;BME280;73420;32.678;-85.380;2024-01-30T06:17:31;99133.03;;;12.57;26.23
83483;BME280;73420;32.678;-85.380;2024-01-30T06:19:57;99132.23;;;12.52;26.90
83483;BME280;73420;32.678;-85.380;2024-01-30T06:22:25;99130.67;;;12.35;27.10
83483;BME280;73420;32.678;-85.380;2024-01-30T06:24:48;99133.91;;;12.35;26.34
83483;BME280;73420;32.678;-85.380;2024-01-30T06:27:14;99138.20;;;12.50;26.27
83483;BME280;73420;32.678;-85.380;2024-01-30T06:29:40;99137.97;;;12.37;26.61
83483;BME280;73420;32.678;-85.380;2024-01-30T06:32:06;99137.45;;;12.31;26.38
83483;BME280;73420;32.678;-85.380;2024-01-30T06:34:34;99133.62;;;12.35;26.12
83483;BME280;73420;32.678;-85.380;2024-01-30T06:36:57;99130.87;;;12.31;26.16
83483;BME280;73420;32.678;-85.380;2024-01-30T06:39:22;99130.01;;;11.99;26.09
83483;BME280;73420;32.678;-85.380;2024-01-30T06:41:48;99129.65;;;12.28;26.24
83483;BME280;73420;32.678;-85.380;2024-01-30T06:44:14;99131.19;;;12.15;26.07
83483;BME280;73420;32.678;-85.380;2024-01-30T06:46:40;99134.09;;;12.17;26.10
83483;BME280;73420;32.678;-85.380;2024-01-30T06:49:05;99141.16;;;12.09;26.48
83483;BME280;73420;32.678;-85.380;2024-01-30T06:51:31;99145.13;;;12.07;26.45
83483;BME280;73420;32.678;-85.380;2024-01-30T06:53:57;99145.17;;;11.97;26.21
83483;BME280;73420;32.678;-85.380;2024-01-30T06:56:22;99138.93;;;12.26;26.13
83483;BME280;73420;32.678;-85.380;2024-01-30T06:58:49;99135.23;;;11.93;26.35
83483;BME280;73420;32.678;-85.380;2024-01-30T07:01:14;99135.05;;;12.21;26.31
83483;BME280;73420;32.678;-85.380;2024-01-30T07:03:39;99137.66;;;12.28;26.24
83483;BME280;73420;32.678;-85.380;2024-01-30T07:06:05;99136.20;;;12.30;26.30
83483;BME280;73420;32.678;-85.380;2024-01-30T07:08:31;99134.05;;;12.12;26.21
83483;BME280;73420;32.678;-85.380;2024-01-30T07:10:57;99132.54;;;12.18;26.48
83483;BME280;73420;32.678;-85.380;2024-01-30T07:13:22;99132.78;;;12.45;26.84
83483;BME280;73420;32.678;-85.380;2024-01-30T07:15:48;99129.92;;;11.98;26.41
83483;BME280;73420;32.678;-85.380;2024-01-30T07:18:14;99130.20;;;12.33;26.28
83483;BME280;73420;32.678;-85.380;2024-01-30T07:20:39;99132.82;;;12.02;26.27
83483;BME280;73420;32.678;-85.380;2024-01-30T07:23:09;99131.92;;;11.99;26.28
83483;BME280;73420;32.678;-85.380;2024-01-30T07:25:31;99135.78;;;12.14;26.10
83483;BME280;73420;32.678;-85.380;2024-01-30T07:27:57;99139.00;;;12.27;26.20
83483;BME280;73420;32.678;-85.380;2024-01-30T07:30:22;99140.29;;;11.94;26.34
83483;BME280;73420;32.678;-85.380;2024-01-30T07:32:48;99129.15;;;12.10;26.54
83483;BME280;73420;32.678;-85.380;2024-01-30T07:35:14;99119.23;;;11.84;26.59
83483;BME280;73420;32.678;-85.380;2024-01-30T07:37:39;99114.38;;;11.81;26.67
83483;BME280;73420;32.678;-85.380;2024-01-30T07:40:06;99110.72;;;11.64;26.83
83483;BME280;73420;32.678;-85.380;2024-01-30T07:42:30;99109.53;;;11.80;26.67
83483;BME280;73420;32.678;-85.380;2024-01-30T07:44:56;99106.68;;;11.87;26.60
83483;BME280;73420;32.678;-85.380;2024-01-30T07:47:25;99107.05;;;11.73;26.77
83483;BME280;73420;32.678;-85.380;2024-01-30T07:49:47;99103.16;;;11.97;26.71
83483;BME280;73420;32.678;-85.380;2024-01-30T07:52:13;99102.94;;;11.84;26.83
83483;BME280;73420;32.678;-85.380;2024-01-30T07:54:39;99103.03;;;11.18;27.20
83483;BME280;73420;32.678;-85.380;2024-01-30T07:57:05;99106.50;;;10.97;27.37
83483;BME280;73420;32.678;-85.380;2024-01-30T07:59:31;99107.24;;;11.25;27.40
83483;BME280;73420;32.678;-85.380;2024-01-30T08:01:56;99101.68;;;11.23;27.41
83483;BME280;73420;32.678;-85.380;2024-01-30T08:04:22;99100.16;;;11.26;27.30
83483;BME280;73420;32.678;-85.380;2024-01-30T08:06:47;99103.48;;;11.19;27.41
83483;BME280;73420;32.678;-85.380;2024-01-30T08:09:13;99101.33;;;10.95;27.58
83483;BME280;73420;32.678;-85.380;2024-01-30T08:11:42;99100.16;;;11.05;27.51
83483;BME280;73420;32.678;-85.380;2024-01-30T08:14:04;99096.77;;;11.41;27.37
83483;BME280;73420;32.678;-85.380;2024-01-30T08:16:30;99092.35;;;11.05;27.33
83483;BME280;73420;32.678;-85.380;2024-01-30T08:18:56;99091.33;;;11.33;27.22
83483;BME280;73420;32.678;-85.380;2024-01-30T08:21:21;99097.27;;;11.35;27.15
83483;BME280;73420;32.678;-85.380;2024-01-30T08:23:47;99099.99;;;11.35;27.27
83483;BME280;73420;32.678;-85.380;2024-01-30T08:26:13;99099.32;;;11.62;27.25
83483;BME280;73420;32.678;-85.380;2024-01-30T08:28:38;99098.88;;;11.17;27.22
83483;BME280;73420;32.678;-85.380;2024-01-30T08:31:04;99098.52;;;11.36;27.26
83483;BME280;73420;32.678;-85.380;2024-01-30T08:33:30;99094.79;;;11.28;27.28
83483;BME280;73420;32.678;-85.380;2024-01-30T08:35:59;99094.16;;;10.78;27.34
83483;BME280;73420;32.678;-85.380;2024-01-30T08:38:21;99092.26;;;11.18;27.21
83483;BME280;73420;32.678;-85.380;2024-01-30T08:40:47;99089.71;;;11.33;26.84
83483;BME280;73420;32.678;-85.380;2024-01-30T08:43:13;99090.79;;;11.68;26.72
83483;BME280;73420;32.678;-85.380;2024-01-30T08:45:38;99097.34;;;11.52;26.81
83483;BME280;73420;32.678;-85.380;2024-01-30T08:48:06;99099.52;;;11.35;27.14
83483;BME280;73420;32.678;-85.380;2024-01-30T08:50:30;99097.85;;;11.09;26.96
83483;BME280;73420;32.678;-85.380;2024-01-30T08:52:55;99097.46;;;11.54;26.93
83483;BME280;73420;32.678;-85.380;2024-01-30T08:55:21;99095.03;;;11.51;26.83
83483;BME280;73420;32.678;-85.380;2024-01-30T08:57:47;99096.30;;;11.43;27.21
83483;BME280;73420;32.678;-85.380;2024-01-30T09:00:14;99093.98;;;11.32;27.35
83483;BME280;73420;32.678;-85.380;2024-01-30T09:02:38;99094.13;;;11.19;27.27
83483;BME280;73420;32.678;-85.380;2024-01-30T09:05:04;99090.75;;;11.01;27.70
83483;BME280;73420;32.678;-85.380;2024-01-30T09:07:30;99087.70;;;10.98;27.51
83483;BME280;73420;32.678;-85.380;2024-01-30T09:09:56;99088.61;;;11.09;27.56
83483;BME280;73420;32.678;-85.380;2024-01-30T09:12:22;99091.24;;;11.09;27.29
83483;BME280;73420;32.678;-85.380;2024-01-30T09:14:47;99090.07;;;11.05;27.16
83483;BME280;73420;32.678;-85.380;2024-01-30T09:17:13;99086.56;;;11.15;27.71
83483;BME280;73420;32.678;-85.380;2024-01-30T09:19:38;99088.26;;;10.91;27.82
83483;BME280;73420;32.678;-85.380;2024-01-30T09:22:04;99087.79;;;10.71;27.94
83483;BME280;73420;32.678;-85.380;2024-01-30T09:24:30;99088.88;;;10.94;27.78
83483;BME280;73420;32.678;-85.380;2024-01-30T09:26:55;99090.54;;;11.16;27.26
83483;BME280;73420;32.678;-85.380;2024-01-30T09:29:21;99088.32;;;11.49;27.08
83483;BME280;73420;32.678;-85.380;2024-01-30T09:31:47;99088.87;;;11.17;27.14
83483;BME280;73420;32.678;-85.380;2024-01-30T09:34:12;99090.85;;;11.12;27.08
83483;BME280;73420;32.678;-85.380;2024-01-30T09:36:41;99088.40;;;11.12;27.13
83483;BME280;73420;32.678;-85.380;2024-01-30T09:39:04;99086.00;;;11.08;27.61
83483;BME280;73420;32.678;-85.380;2024-01-30T09:41:31;99086.18;;;10.79;27.87
83483;BME280;73420;32.678;-85.380;2024-01-30T09:43:57;99081.83;;;10.51;28.07
83483;BME280;73420;32.678;-85.380;2024-01-30T09:46:21;99081.91;;;10.52;28.17
83483;BME280;73420;32.678;-85.380;2024-01-30T09:48:47;99084.28;;;10.19;28.23
83483;BME280;73420;32.678;-85.380;2024-01-30T09:51:14;99084.41;;;10.40;28.27
83483;BME280;73420;32.678;-85.380;2024-01-30T09:53:41;99081.88;;;10.41;28.31
83483;BME280;73420;32.678;-85.380;2024-01-30T09:56:04;99079.28;;;10.25;28.51
83483;BME280;73420;32.678;-85.380;2024-01-30T09:58:30;99077.24;;;10.21;28.55
83483;BME280;73420;32.678;-85.380;2024-01-30T10:00:57;99077.12;;;10.23;28.56
83483;BME280;73420;32.678;-85.380;2024-01-30T10:03:21;99073.17;;;10.40;28.41
83483;BME280;73420;32.678;-85.380;2024-01-30T10:05:51;99069.64;;;10.83;28.43
83483;BME280;73420;32.678;-85.380;2024-01-30T10:08:12;99068.13;;;10.19;28.64
83483;BME280;73420;32.678;-85.380;2024-01-30T10:10:38;99064.47;;;10.06;28.74
83483;BME280;73420;32.678;-85.380;2024-01-30T10:13:07;99058.36;;;10.22;28.62
83483;BME280;73420;32.678;-85.380;2024-01-30T10:15:29;99050.55;;;10.75;28.56
83483;BME280;73420;32.678;-85.380;2024-01-30T10:17:55;99042.79;;;10.26;28.61
83483;BME280;73420;32.678;-85.380;2024-01-30T10:20:21;99043.31;;;10.30;28.61
83483;BME280;73420;32.678;-85.380;2024-01-30T10:22:46;99048.66;;;9.73;28.82
83483;BME280;73420;32.678;-85.380;2024-01-30T10:25:15;99045.20;;;9.86;28.98
83483;BME280;73420;32.678;-85.380;2024-01-30T10:27:39;99041.47;;;10.07;28.76
83483;BME280;73420;32.678;-85.380;2024-01-30T10:30:03;99043.61;;;10.55;28.68
83483;BME280;73420;32.678;-85.380;2024-01-30T10:32:29;99043.55;;;10.10;28.65
83483;BME280;73420;32.678;-85.380;2024-01-30T10:34:54;99048.35;;;10.14;28.73
83483;BME280;73420;32.678;-85.380;2024-01-30T10:37:22;99052.66;;;10.03;28.63
83483;BME280;73420;32.678;-85.380;2024-01-30T10:39:46;99052.97;;;10.36;28.67
83483;BME280;73420;32.678;-85.380;2024-01-30T10:42:12;99054.22;;;9.90;28.73
83483;BME280;73420;32.678;-85.380;2024-01-30T10:44:44;99060.20;;;10.16;28.82
83483;BME280;73420;32.678;-85.380;2024-01-30T10:47:06;99060.91;;;9.82;28.86
83483;BME280;73420;32.678;-85.380;2024-01-30T10:49:35;99063.10;;;9.78;28.97
83483;BME280;73420;32.678;-85.380;2024-01-30T10:51:55;99061.73;;;10.33;28.94
83483;BME280;73420;32.678;-85.380;2024-01-30T10:54:20;99062.38;;;9.90;28.81
83483;BME280;73420;32.678;-85.380;2024-01-30T10:56:45;99062.37;;;9.92;28.76
83483;BME280;73420;32.678;-85.380;2024-01-30T10:59:11;99061.33;;;10.25;28.64
83483;BME280;73420;32.678;-85.380;2024-01-30T11:01:36;99068.95;;;10.28;28.60
83483;BME280;73420;32.678;-85.380;2024-01-30T11:04:02;99070.06;;;9.97;28.60
83483;BME280;73420;32.678;-85.380;2024-01-30T11:06:27;99075.05;;;9.88;28.62
83483;BME280;73420;32.678;-85.380;2024-01-30T11:09:02;99079.48;;;10.46;28.71
83483;BME280;73420;32.678;-85.380;2024-01-30T11:11:19;99084.47;;;10.12;28.63
83483;BME280;73420;32.678;-85.380;2024-01-30T11:13:45;99088.54;;;10.18;28.53
83483;BME280;73420;32.678;-85.380;2024-01-30T11:16:11;99088.91;;;9.99;28.52
83483;BME280;73420;32.678;-85.380;2024-01-30T11:18:36;99087.35;;;10.08;28.47
83483;BME280;73420;32.678;-85.380;2024-01-30T11:21:04;99086.29;;;9.99;28.65
83483;BME280;73420;32.678;-85.380;2024-01-30T11:23:28;99084.24;;;10.49;28.72
83483;BME280;73420;32.678;-85.380;2024-01-30T11:25:56;99083.08;;;9.96;28.76
83483;BME280;73420;32.678;-85.380;2024-01-30T11:28:21;99085.31;;;10.25;28.77
83483;BME280;73420;32.678;-85.380;2024-01-30T11:30:45;99087.41;;;10.06;28.69
83483;BME280;73420;32.678;-85.380;2024-01-30T11:33:12;99091.32;;;10.67;28.49
83483;BME280;73420;32.678;-85.380;2024-01-30T11:35:37;99087.72;;;10.44;28.44
83483;BME280;73420;32.678;-85.380;2024-01-30T11:38:05;99087.86;;;10.00;28.54
83483;BME280;73420;32.678;-85.380;2024-01-30T11:40:28;99086.07;;;10.24;28.62
83483;BME280;73420;32.678;-85.380;2024-01-30T11:42:55;99085.28;;;10.34;28.45
83483;BME280;73420;32.678;-85.380;2024-01-30T11:45:19;99086.82;;;10.38;28.72
83483;BME280;73420;32.678;-85.380;2024-01-30T11:47:45;99087.86;;;10.57;28.58
83483;BME280;73420;32.678;-85.380;2024-01-30T11:50:15;99088.90;;;10.65;28.38
83483;BME280;73420;32.678;-85.380;2024-01-30T11:52:36;99089.39;;;10.62;28.29
83483;BME280;73420;32.678;-85.380;2024-01-30T11:55:02;99092.60;;;10.26;28.27
83483;BME280;73420;32.678;-85.380;2024-01-30T11:57:28;99095.82;;;10.17;28.75
83483;BME280;73420;32.678;-85.380;2024-01-30T11:59:53;99098.46;;;9.71;28.80
83483;BME280;73420;32.678;-85.380;2024-01-30T12:02:19;99102.08;;;10.27;28.84
83483;BME280;73420;32.678;-85.380;2024-01-30T12:04:44;99110.02;;;10.22;28.69
83483;BME280;73420;32.678;-85.380;2024-01-30T12:07:10;99116.96;;;10.18;28.80
83483;BME280;73420;32.678;-85.380;2024-01-30T12:09:36;99121.87;;;9.71;28.98
83483;BME280;73420;32.678;-85.380;2024-01-30T12:12:01;99119.06;;;9.72;29.00
83483;BME280;73420;32.678;-85.380;2024-01-30T12:14:27;99116.01;;;9.81;29.00
83483;BME280;73420;32.678;-85.380;2024-01-30T12:16:53;99118.48;;;10.02;28.86
83483;BME280;73420;32.678;-85.380;2024-01-30T12:19:23;99123.18;;;9.65;28.99
83483;BME280;73420;32.678;-85.380;2024-01-30T12:21:44;99128.02;;;9.73;29.13
83483;BME280;73420;32.678;-85.380;2024-01-30T12:24:10;99131.25;;;9.16;29.08
83483;BME280;73420;32.678;-85.380;2024-01-30T12:26:38;99129.21;;;9.69;29.01
83483;BME280;73420;32.678;-85.380;2024-01-30T12:29:03;99130.55;;;9.50;28.97
83483;BME280;73420;32.678;-85.380;2024-01-30T12:31:26;99130.16;;;9.80;29.01